Time;durP1;ratioP1;P1;durP2;ratioP2;P2;SDS_P1;SDS_P2;PMS_P1;PMS_P2;Temp;Humidity;BMP_temperature;BMP_pressure;BME280_temperature;BME280_humidity;BME280_pressure;Samples;Min_cycle;Max_cycle;Signal;HPM_P1;HPM_P2
2022/04/20 00:01:27;;;;;;;21.35;13.85;;;;;;;20.76;50.76;98443.05;1791808;80;25920;-89
2022/04/20 00:03:54;;;;;;;22.05;14.25;;;;;;;20.75;50.76;98443.63;1791854;80;25605;-89
2022/04/20 00:06:20;;;;;;;22.05;13.98;;;;;;;20.72;50.80;98437.44;1791875;80;25747;-88
2022/04/20 00:08:46;;;;;;;20.62;14.03;;;;;;;20.73;50.82;98429.90;1792032;80;25396;-90
2022/04/20 00:11:13;;;;;;;21.23;14.07;;;;;;;20.73;50.80;98429.31;1791956;80;27517;-90
2022/04/20 00:13:40;;;;;;;22.55;13.93;;;;;;;20.73;50.77;98425.72;1791430;80;25659;-90
2022/04/20 00:16:06;;;;;;;21.60;14.15;;;;;;;20.73;50.79;98432.09;1791629;80;25404;-90
2022/04/20 00:18:32;;;;;;;22.05;13.60;;;;;;;20.72;50.76;98420.73;1791857;80;25715;-90
2022/04/20 00:20:58;;;;;;;21.20;13.48;;;;;;;20.71;50.76;98419.73;1791965;80;25462;-90
2022/04/20 00:23:24;;;;;;;20.55;13.88;;;;;;;20.70;50.76;98414.78;1791873;80;26770;-90
2022/04/20 00:25:49;;;;;;;21.70;13.75;;;;;;;20.68;50.78;98417.95;1791853;80;25407;-90
2022/04/20 00:28:15;;;;;;;20.80;13.65;;;;;;;20.68;50.76;98415.16;1791980;80;25565;-90
2022/04/20 00:30:41;;;;;;;20.50;13.03;;;;;;;20.67;50.78;98414.94;1791782;80;26508;-89
2022/04/20 00:33:07;;;;;;;20.60;13.45;;;;;;;20.67;50.75;98411.38;1791906;80;25830;-90
2022/04/20 00:35:34;;;;;;;21.12;13.62;;;;;;;20.66;50.77;98408.37;1791916;80;27376;-90
2022/04/20 00:38:00;;;;;;;20.95;13.18;;;;;;;20.64;50.77;98409.37;1791791;80;25415;-90
2022/04/20 00:40:26;;;;;;;21.48;13.70;;;;;;;20.61;50.78;98405.36;1791989;80;25467;-89
2022/04/20 00:42:52;;;;;;;21.37;14.15;;;;;;;20.61;50.82;98401.80;1791890;80;25738;-89
2022/04/20 00:45:19;;;;;;;20.92;14.23;;;;;;;20.60;50.79;98412.12;1791935;80;25703;-89
2022/04/20 00:47:45;;;;;;;20.57;13.32;;;;;;;20.60;50.82;98416.88;1791049;80;27373;-89
2022/04/20 00:50:12;;;;;;;23.00;14.18;;;;;;;20.61;50.78;98417.10;1791836;80;25660;-89
2022/04/20 00:52:39;;;;;;;20.05;12.88;;;;;;;20.60;50.80;98421.05;1791839;80;25736;-89
2022/04/20 00:55:07;;;;;;;19.75;13.55;;;;;;;20.59;50.80;98415.29;1791786;80;26680;-89
2022/04/20 00:57:33;;;;;;;21.23;13.48;;;;;;;20.58;50.79;98410.92;1791993;80;25447;-89
2022/04/20 01:00:04;;;;;;;22.05;14.35;;;;;;;20.56;50.80;98418.27;1791846;80;27373;-89
2022/04/20 01:02:31;;;;;;;22.25;14.05;;;;;;;20.56;50.80;98409.91;1791797;80;25570;-90
2022/04/20 01:04:58;;;;;;;20.10;13.43;;;;;;;20.57;50.75;98414.28;1791934;80;25664;-90
2022/04/20 01:07:24;;;;;;;20.90;13.75;;;;;;;20.56;50.81;98412.70;1791895;80;26469;-89
2022/04/20 01:09:50;;;;;;;19.65;13.32;;;;;;;20.54;50.79;98403.34;1791891;80;25648;-89
2022/04/20 01:12:17;;;;;;;21.35;14.13;;;;;;;20.53;50.79;98408.69;1791935;80;27364;-89
2022/04/20 01:14:44;;;;;;;19.62;13.48;;;;;;;20.52;50.79;98403.53;1793078;79;25904;-90
2022/04/20 01:17:10;;;;;;;19.77;12.93;;;;;;;20.52;50.79;98403.53;1797382;79;25410;-89
2022/04/20 01:19:39;;;;;;;20.35;13.30;;;;;;;20.52;50.80;98408.48;1797455;79;26479;-89
2022/04/20 01:22:07;;;;;;;20.60;13.40;;;;;;;20.51;50.81;98406.09;1796601;79;25651;-90
2022/04/20 01:24:35;;;;;;;23.20;14.03;;;;;;;20.48;50.83;98413.83;1797364;79;28360;-90
2022/04/20 01:27:02;;;;;;;19.35;13.55;;;;;;;20.49;50.83;98420.39;1797084;79;25572;-90
2022/04/20 01:29:29;;;;;;;21.55;13.48;;;;;;;20.48;50.83;98411.04;1797445;79;25426;-90
2022/04/20 01:31:57;;;;;;;20.57;13.50;;;;;;;20.48;50.80;98415.22;1797305;79;25754;-90
2022/04/20 01:34:22;;;;;;;20.82;13.05;;;;;;;20.47;50.81;98424.17;1797435;79;25402;-90
2022/04/20 01:36:49;;;;;;;21.65;13.65;;;;;;;20.47;50.82;98413.63;1797646;79;27395;-89
2022/04/20 01:39:16;;;;;;;22.27;13.70;;;;;;;20.43;50.84;98415.79;1797323;79;25913;-89
2022/04/20 01:41:43;;;;;;;21.17;13.32;;;;;;;20.42;50.84;98415.59;1797309;79;25654;-89
2022/04/20 01:44:10;;;;;;;22.50;14.25;;;;;;;20.43;50.87;98424.14;1797358;79;26620;-90
2022/04/20 01:46:36;;;;;;;21.90;14.38;;;;;;;20.42;50.87;98411.42;1797399;79;25714;-89
2022/04/20 01:49:03;;;;;;;20.40;14.43;;;;;;;20.42;50.85;98409.22;1797437;79;28288;-90
2022/04/20 01:51:47;;;;;;;21.62;13.58;;;;;;;20.41;50.85;98408.41;1797287;79;25608;-90
2022/04/20 01:54:13;;;;;;;19.12;13.50;;;;;;;20.40;50.84;98411.58;1797223;79;25461;-90
2022/04/20 01:56:39;;;;;;;20.05;13.05;;;;;;;20.38;50.88;98411.19;1797382;79;25739;-90
2022/04/20 01:59:06;;;;;;;20.90;13.35;;;;;;;20.37;50.89;98407.59;1797467;79;25660;-90
2022/04/20 02:04:17;;;;;;;20.57;13.15;;;;;;;20.38;50.87;98405.63;1797042;79;25638;-89
2022/04/20 02:06:43;;;;;;;20.82;13.25;;;;;;;20.36;50.86;98401.83;1797141;79;25576;-89
2022/04/20 02:09:09;;;;;;;22.25;13.38;;;;;;;20.36;50.83;98407.40;1797465;79;26446;-89
2022/04/20 02:11:35;;;;;;;21.10;13.53;;;;;;;20.36;50.86;98406.00;1797421;79;25695;-89
2022/04/20 02:14:01;;;;;;;21.70;13.20;;;;;;;20.36;50.85;98410.18;1797326;79;27452;-90
2022/04/20 02:16:27;;;;;;;21.05;13.80;;;;;;;20.36;50.83;98408.79;1797794;79;25739;-88
2022/04/20 02:18:53;;;;;;;22.50;14.23;;;;;;;20.33;50.85;98405.97;1798326;79;25660;-90
2022/04/20 02:21:19;;;;;;;20.45;13.15;;;;;;;20.30;50.89;98402.77;1798410;79;25861;-89
2022/04/20 02:23:45;;;;;;;20.97;13.25;;;;;;;20.30;50.90;98409.72;1798248;79;25665;-89
2022/04/20 02:26:11;;;;;;;19.98;13.43;;;;;;;20.28;50.92;98410.72;1798287;79;28313;-88
2022/04/20 02:28:37;;;;;;;19.30;12.98;;;;;;;20.27;50.93;98413.27;1798124;79;25482;-89
2022/04/20 02:31:03;;;;;;;21.17;13.85;;;;;;;20.28;50.91;98412.69;1798501;79;25426;-88
2022/04/20 02:33:29;;;;;;;18.25;12.65;;;;;;;20.27;50.92;98409.71;1798337;79;25391;-88
2022/04/20 02:35:57;;;;;;;19.37;13.22;;;;;;;20.26;50.90;98420.03;1798524;79;25665;-88
2022/04/20 02:38:24;;;;;;;20.00;13.90;;;;;;;20.25;50.92;98419.02;1798402;79;27422;-89
2022/04/20 02:40:51;;;;;;;21.02;14.10;;;;;;;20.24;50.96;98418.25;1798366;79;25478;-89
2022/04/20 02:43:18;;;;;;;20.15;13.55;;;;;;;20.25;50.93;98420.41;1798347;79;25600;-88
2022/04/20 02:45:43;;;;;;;21.77;13.78;;;;;;;20.24;50.90;98421.03;1798439;79;25723;-88
2022/04/20 02:48:10;;;;;;;20.60;13.58;;;;;;;20.24;50.90;98426.59;1798637;79;25457;-89
2022/04/20 02:50:36;;;;;;;21.15;13.15;;;;;;;20.24;50.89;98423.00;1798376;79;27308;-88
2022/04/20 02:53:02;;;;;;;20.23;13.88;;;;;;;20.21;50.92;98427.36;1798402;79;25882;-88
2022/04/20 02:55:28;;;;;;;20.10;13.60;;;;;;;20.20;50.94;98427.75;1798517;79;25579;-89
2022/04/20 02:57:54;;;;;;;20.25;13.05;;;;;;;20.21;50.94;98425.16;1798125;79;26593;-89
2022/04/20 03:00:20;;;;;;;19.73;13.30;;;;;;;20.20;50.92;98420.17;1798400;79;25678;-89
2022/04/20 03:02:46;;;;;;;19.62;13.15;;;;;;;20.20;50.92;98418.01;1798475;79;27357;-90
2022/04/20 03:05:12;;;;;;;20.95;13.30;;;;;;;20.18;50.88;98417.78;1798389;79;25437;-89
2022/04/20 03:07:38;;;;;;;21.65;13.35;;;;;;;20.20;50.91;98406.88;1798573;79;25587;-89
2022/04/20 03:10:05;;;;;;;20.20;13.50;;;;;;;20.18;50.89;98401.70;1798297;79;25751;-90
2022/04/20 03:12:31;;;;;;;20.50;13.48;;;;;;;20.18;50.89;98401.70;1798408;79;25430;-90
2022/04/20 03:14:57;;;;;;;20.97;13.30;;;;;;;20.16;50.94;98397.91;1797860;79;27405;-90
2022/04/20 03:17:24;;;;;;;21.30;13.28;;;;;;;20.16;50.88;98396.52;1791817;80;25973;-90
2022/04/20 03:19:51;;;;;;;21.62;13.85;;;;;;;20.15;50.95;98390.73;1791940;80;25596;-90
2022/04/20 03:22:18;;;;;;;20.52;13.22;;;;;;;20.15;50.93;98397.69;1791557;80;25769;-90
2022/04/20 03:24:45;;;;;;;18.70;12.50;;;;;;;20.15;50.90;98401.08;1791892;80;25462;-89
2022/04/20 03:27:10;;;;;;;20.52;13.30;;;;;;;20.13;50.95;98401.47;1791919;80;27363;-88
2022/04/20 03:29:37;;;;;;;20.25;13.03;;;;;;;20.12;50.92;98402.63;1791915;80;25829;-88
2022/04/20 03:32:10;;;;;;;19.95;13.55;;;;;;;20.13;50.92;98399.27;1792112;80;25482;-88
2022/04/20 03:34:37;;;;;;;18.62;12.37;;;;;;;20.12;50.91;98404.02;1765109;80;25751;-88
2022/04/20 03:37:06;;;;;;;20.27;13.25;;;;;;;20.12;50.90;98408.19;1791829;80;25663;-88
2022/04/20 03:39:33;;;;;;;19.70;13.65;;;;;;;20.12;50.92;98412.36;1791893;80;27423;-88
2022/04/20 03:42:00;;;;;;;20.20;13.48;;;;;;;20.11;50.89;98414.95;1791827;80;25419;-88
2022/04/20 03:44:29;;;;;;;21.27;14.03;;;;;;;20.11;50.93;98408.58;1791947;80;25676;-88
2022/04/20 03:46:55;;;;;;;18.73;13.20;;;;;;;20.10;50.88;98411.16;1791854;80;26675;-89
2022/04/20 03:49:21;;;;;;;20.10;13.58;;;;;;;20.08;50.88;98406.56;1792024;80;25665;-88
2022/04/20 03:51:47;;;;;;;20.27;13.32;;;;;;;20.08;50.89;98405.17;1791937;80;27394;-88
2022/04/20 03:54:14;;;;;;;20.12;12.85;;;;;;;20.07;50.91;98405.78;1792016;80;25680;-88
2022/04/20 03:59:26;;;;;;;19.25;13.60;;;;;;;20.06;50.85;98406.36;1791624;80;25563;-88
2022/04/20 04:01:53;;;;;;;18.12;13.13;;;;;;;20.04;50.88;98403.16;1792043;80;25398;-87
2022/04/20 04:04:20;;;;;;;18.73;13.08;;;;;;;20.05;50.89;98403.97;1791530;80;28227;-88
2022/04/20 04:06:47;;;;;;;21.05;14.60;;;;;;;20.01;50.99;98406.70;1791810;80;25739;-87
2022/04/20 04:09:13;;;;;;;20.85;13.60;;;;;;;20.00;50.98;98405.09;1791991;80;25682;-88
2022/04/20 04:11:40;;;;;;;20.00;13.28;;;;;;;20.03;50.90;98409.91;1791923;80;25682;-88
2022/04/20 04:14:06;;;;;;;21.93;13.88;;;;;;;20.05;50.88;98408.14;1792051;80;25664;-88
2022/04/20 04:16:36;;;;;;;21.73;14.00;;;;;;;20.05;50.85;98413.13;1794960;79;27399;-88
2022/04/20 04:19:07;;;;;;;22.37;14.45;;;;;;;20.04;50.87;98410.11;1797304;79;25640;-88
2022/04/20 04:21:40;;;;;;;19.77;13.90;;;;;;;20.05;50.72;98414.52;1797624;79;25418;-89
2022/04/20 04:24:07;;;;;;;22.80;14.28;;;;;;;20.04;50.72;98410.11;1796825;79;25422;-88
2022/04/20 04:26:33;;;;;;;18.92;13.28;;;;;;;20.02;50.90;98406.94;1797500;79;25615;-88
2022/04/20 04:29:00;;;;;;;21.62;14.38;;;;;;;20.00;50.97;98412.04;1797178;79;27458;-87
2022/04/20 04:31:28;;;;;;;21.10;13.98;;;;;;;20.02;50.96;98406.13;1797358;79;25667;-88
2022/04/20 04:33:54;;;;;;;20.68;14.38;;;;;;;20.03;50.92;98408.52;1797474;79;25434;-88
2022/04/20 04:36:20;;;;;;;21.15;13.98;;;;;;;20.03;50.89;98410.49;1797528;79;26344;-89
2022/04/20 04:38:45;;;;;;;22.65;14.20;;;;;;;20.05;50.88;98416.48;1797478;79;25647;-88
2022/04/20 04:41:11;;;;;;;23.45;14.38;;;;;;;20.06;50.91;98420.27;1797467;79;27422;-88
2022/04/20 04:43:37;;;;;;;18.07;12.88;;;;;;;20.02;50.74;98419.45;1797463;79;25964;-88
2022/04/20 04:48:48;;;;;;;21.55;14.38;;;;;;;19.95;50.98;98417.97;1803794;78;25658;-88
2022/04/20 04:51:16;;;;;;;20.95;13.72;;;;;;;19.94;51.01;98420.52;1808851;78;25714;-88
2022/04/20 04:53:43;;;;;;;22.60;13.88;;;;;;;19.94;51.03;98424.12;1807710;78;27321;-87
2022/04/20 04:56:09;;;;;;;20.35;13.68;;;;;;;19.94;51.13;98425.51;1805630;78;25685;-87
2022/04/20 04:58:35;;;;;;;23.38;14.15;;;;;;;19.94;51.20;98424.70;1796371;78;25600;-89
2022/04/20 05:01:01;;;;;;;21.97;14.50;;;;;;;19.94;51.23;98426.89;1791647;80;26267;-87
2022/04/20 05:03:27;;;;;;;25.62;14.87;;;;;;;19.90;51.35;98426.66;1791625;80;25658;-90
2022/04/20 05:05:54;;;;;;;25.30;14.78;;;;;;;19.90;51.42;98427.46;1791762;80;27389;-88
2022/04/20 05:08:20;;;;;;;22.98;14.15;;;;;;;19.89;51.59;98426.45;1791672;80;25665;-87
2022/04/20 05:10:46;;;;;;;22.45;14.93;;;;;;;19.89;51.53;98430.63;1791779;80;25647;-88
2022/04/20 05:13:13;;;;;;;23.65;14.73;;;;;;;19.90;51.60;98434.99;1791595;80;25667;-87
2022/04/20 05:15:39;;;;;;;23.35;15.00;;;;;;;19.90;51.64;98434.41;1790495;80;25754;-87
2022/04/20 05:18:06;;;;;;;22.17;14.60;;;;;;;19.89;51.65;98432.80;1777618;80;27362;-87
2022/04/20 05:20:32;;;;;;;26.37;15.08;;;;;;;19.89;51.68;98434.80;1777745;80;25630;-87
2022/04/20 05:22:58;;;;;;;23.60;15.00;;;;;;;19.91;51.67;98430.44;1777778;80;25685;-87
2022/04/20 05:25:25;;;;;;;21.82;14.80;;;;;;;19.92;51.64;98428.47;1777729;80;25728;-87
2022/04/20 05:27:51;;;;;;;23.77;15.00;;;;;;;19.93;51.65;98428.09;1777425;80;25578;-87
2022/04/20 05:30:18;;;;;;;21.57;14.95;;;;;;;19.94;51.65;98431.65;1777711;80;27412;-87
2022/04/20 05:32:44;;;;;;;21.55;15.00;;;;;;;19.95;51.65;98430.48;1777629;80;25681;-87
2022/04/20 05:35:11;;;;;;;23.57;14.25;;;;;;;19.96;51.61;98428.48;1777414;80;25659;-87
2022/04/20 05:43:07;;;;;;;24.57;14.63;;;;;;;19.97;51.60;98428.71;1774083;80;26536;-87
2022/04/20 05:45:33;;;;;;;22.35;14.65;;;;;;;19.93;51.64;98426.70;1777748;80;25750;-87
2022/04/20 05:47:59;;;;;;;22.45;14.85;;;;;;;19.93;51.60;98425.89;1777743;80;25754;-87
2022/04/20 05:50:26;;;;;;;22.13;14.45;;;;;;;19.92;51.67;98425.69;1777666;80;25686;-87
2022/04/20 05:52:52;;;;;;;23.12;14.73;;;;;;;19.90;51.71;98423.87;1777667;80;25660;-87
2022/04/20 05:55:20;;;;;;;25.97;15.30;;;;;;;19.88;51.78;98420.09;1777796;80;28043;-87
2022/04/20 05:57:49;;;;;;;23.95;15.58;;;;;;;19.90;51.80;98425.27;1777198;80;25649;-87
2022/04/20 06:00:16;;;;;;;22.73;15.28;;;;;;;19.89;51.83;98423.06;1777404;80;25480;-86
2022/04/20 06:02:43;;;;;;;23.02;15.28;;;;;;;19.89;51.88;98423.06;1777799;80;25745;-86
2022/04/20 06:05:10;;;;;;;22.37;15.40;;;;;;;19.91;51.82;98425.46;1777468;80;25665;-86
2022/04/20 06:07:37;;;;;;;25.45;17.12;;;;;;;19.90;51.83;98420.52;1777859;80;27360;-86
2022/04/20 06:10:05;;;;;;;23.07;15.05;;;;;;;19.91;51.80;98424.07;1777779;80;25460;-87
2022/04/20 06:12:32;;;;;;;22.87;15.35;;;;;;;19.93;51.78;98424.50;1777889;80;25409;-87
2022/04/20 06:14:59;;;;;;;22.67;15.05;;;;;;;19.91;51.75;98419.90;1777521;80;26475;-87
2022/04/20 06:17:25;;;;;;;24.37;15.40;;;;;;;19.89;51.84;98425.84;1786815;79;25424;-87
2022/04/20 06:19:51;;;;;;;22.15;15.18;;;;;;;19.87;51.88;98421.27;1791773;80;27418;-87
2022/04/20 06:22:18;;;;;;;23.95;15.75;;;;;;;19.88;51.83;98426.22;1791631;80;25587;-87
2022/04/20 06:24:44;;;;;;;23.47;15.88;;;;;;;19.89;51.90;98423.06;1791765;80;25423;-87
2022/04/20 06:27:11;;;;;;;26.42;15.53;;;;;;;19.88;51.92;98416.49;1791715;80;25696;-87
2022/04/20 06:29:38;;;;;;;24.95;15.20;;;;;;;19.88;51.86;98411.74;1791509;80;25387;-86
2022/04/20 06:32:06;;;;;;;24.40;15.35;;;;;;;19.88;51.87;98410.94;1791653;80;27428;-87
2022/04/20 06:35:05;;;;;;;27.65;15.58;;;;;;;19.86;51.84;98411.92;1796106;78;25718;-87
2022/04/20 06:37:31;;;;;;;25.30;15.10;;;;;;;19.86;51.90;98412.70;1808816;78;25643;-87
2022/04/20 06:39:57;;;;;;;22.27;14.40;;;;;;;19.87;51.87;98413.52;1806753;78;25711;-87
2022/04/20 06:42:26;;;;;;;23.27;15.50;;;;;;;19.86;51.86;98414.70;1818662;78;25152;-87
2022/04/20 06:44:52;;;;;;;26.90;15.60;;;;;;;19.87;51.82;98403.20;1785099;79;26049;-87
2022/04/20 06:47:18;;;;;;;26.00;15.60;;;;;;;19.88;51.72;98401.20;1790718;79;25664;-87
2022/04/20 06:49:45;;;;;;;22.70;15.43;;;;;;;19.87;51.72;98396.25;1807253;78;25588;-87
2022/04/20 07:00:25;;;;;;;21.85;14.80;;;;;;;19.86;51.78;98393.85;1768052;81;25742;-87
2022/04/20 07:03:01;;;;;;;23.83;15.25;;;;;;;19.85;51.77;98391.66;1765221;81;25778;-87
2022/04/20 07:05:28;;;;;;;25.52;15.78;;;;;;;19.88;51.69;98388.11;1765193;80;25738;-87
2022/04/20 07:07:54;;;;;;;24.45;15.60;;;;;;;19.89;51.58;98383.36;1765842;81;25628;-88
2022/04/20 07:10:21;;;;;;;23.73;15.70;;;;;;;19.89;51.54;98385.52;1765640;81;27277;-87
2022/04/20 07:12:47;;;;;;;25.35;15.63;;;;;;;19.87;51.55;98385.70;1794789;78;25647;-87
2022/04/20 07:15:13;;;;;;;24.18;14.73;;;;;;;19.88;51.60;98380.34;1806422;78;25402;-87
2022/04/20 07:17:39;;;;;;;24.52;15.03;;;;;;;19.87;51.56;98389.30;1791083;78;26484;-87
2022/04/20 07:20:07;;;;;;;23.38;14.80;;;;;;;19.89;51.51;98386.13;1777865;80;25724;-87
2022/04/20 07:22:33;;;;;;;23.15;15.58;;;;;;;19.88;51.47;98384.52;1777755;80;28149;-87
2022/04/20 07:25:00;;;;;;;24.07;15.35;;;;;;;19.87;51.53;98383.73;1793146;79;25844;-87
2022/04/20 07:27:26;;;;;;;25.88;15.83;;;;;;;19.89;51.48;98389.70;1778469;79;25420;-87
2022/04/20 07:29:52;;;;;;;21.75;14.63;;;;;;;19.90;51.46;98378.80;1777843;80;25677;-87
2022/04/20 07:32:19;;;;;;;23.65;15.10;;;;;;;19.91;51.42;98385.14;1777890;80;25396;-87
2022/04/20 07:34:45;;;;;;;21.57;15.10;;;;;;;19.91;51.39;98383.75;1777845;80;27414;-87
2022/04/20 07:37:12;;;;;;;22.05;15.00;;;;;;;19.92;51.33;98381.20;1774386;80;25625;-87
2022/04/20 07:39:39;;;;;;;22.42;14.75;;;;;;;19.91;51.28;98380.39;1777607;80;25654;-87
2022/04/20 07:42:06;;;;;;;22.62;15.83;;;;;;;19.90;51.30;98373.82;1777762;80;25700;-87
2022/04/20 07:44:33;;;;;;;24.00;15.03;;;;;;;19.91;51.25;98369.27;1777875;80;25668;-88
2022/04/20 07:46:59;;;;;;;22.15;14.78;;;;;;;19.89;51.32;98366.06;1805122;79;27434;-89
2022/04/20 07:52:10;;;;;;;23.80;15.15;;;;;;;19.90;51.24;98366.28;1808187;79;25423;-89
2022/04/20 07:54:37;;;;;;;24.02;15.18;;;;;;;19.90;51.22;98371.04;1808628;79;25674;-87
2022/04/20 07:57:04;;;;;;;23.83;14.93;;;;;;;19.88;51.23;98367.25;1808561;79;25462;-87
2022/04/20 07:59:30;;;;;;;22.20;14.30;;;;;;;19.88;51.13;98361.69;1808660;79;27346;-88
2022/04/20 08:01:56;;;;;;;22.90;15.08;;;;;;;19.86;51.16;98361.27;1808590;79;25741;-87
2022/04/20 08:04:23;;;;;;;22.65;13.90;;;;;;;19.85;51.17;98353.31;1808591;79;25715;-87
2022/04/20 08:06:49;;;;;;;21.85;14.30;;;;;;;19.84;51.21;98356.70;1808299;79;25738;-87
2022/04/20 08:09:16;;;;;;;21.87;15.18;;;;;;;19.86;51.23;98352.14;1808671;79;25631;-87
2022/04/20 08:11:42;;;;;;;22.10;14.00;;;;;;;19.90;51.10;98361.31;1808643;79;27402;-87
2022/04/20 08:14:11;;;;;;;22.15;14.40;;;;;;;19.88;51.23;98356.13;1808532;79;25473;-87
2022/04/20 08:16:39;;;;;;;23.45;15.25;;;;;;;19.88;51.10;98356.13;1808279;78;25634;-88
2022/04/20 08:19:07;;;;;;;22.77;14.38;;;;;;;19.90;51.07;98352.97;1808424;79;25732;-87
2022/04/20 08:21:34;;;;;;;21.97;14.53;;;;;;;19.90;51.06;98353.77;1808259;79;25636;-87
2022/04/20 08:24:01;;;;;;;22.13;14.45;;;;;;;19.91;51.00;98352.58;1808230;79;27465;-87
2022/04/20 08:26:27;;;;;;;22.82;14.73;;;;;;;19.91;51.03;98348.99;1808500;79;25644;-87
2022/04/20 08:28:54;;;;;;;19.27;14.03;;;;;;;19.91;50.95;98347.60;1808662;79;25505;-87
2022/04/20 08:31:20;;;;;;;19.00;13.78;;;;;;;19.90;50.97;98346.02;1808594;79;25663;-87
2022/04/20 08:33:46;;;;;;;20.02;13.68;;;;;;;19.90;50.93;98348.21;1808545;79;25605;-87
2022/04/20 08:36:13;;;;;;;20.27;14.43;;;;;;;19.91;50.90;98346.21;1808657;79;27344;-87
2022/04/20 08:38:40;;;;;;;22.32;14.20;;;;;;;19.91;50.89;98340.07;1808263;79;25933;-87
2022/04/20 08:41:14;;;;;;;20.97;14.65;;;;;;;19.92;50.82;98339.48;1808520;79;25622;-87
2022/04/20 08:43:44;;;;;;;20.50;13.65;;;;;;;19.91;50.83;98333.70;1805869;79;26571;-88
2022/04/20 08:46:11;;;;;;;21.07;14.63;;;;;;;19.90;50.87;98340.45;1808261;79;25561;-87
2022/04/20 08:48:38;;;;;;;18.82;13.70;;;;;;;19.88;50.79;98328.91;1808402;79;28279;-87
2022/04/20 08:51:06;;;;;;;22.07;14.65;;;;;;;19.88;50.80;98324.73;1808489;79;25415;-86
2022/04/20 08:53:33;;;;;;;20.57;13.70;;;;;;;19.88;50.84;98333.08;1808525;79;25728;-88
2022/04/20 08:58:48;;;;;;;20.45;13.62;;;;;;;19.87;50.81;98325.93;1808203;79;25708;-87
2022/04/20 09:01:17;;;;;;;21.12;13.78;;;;;;;19.86;50.77;98317.39;1803823;79;27364;-87
2022/04/20 09:03:46;;;;;;;19.25;13.40;;;;;;;19.87;50.87;98317.00;1792295;79;25650;-87
2022/04/20 09:06:14;;;;;;;20.90;13.88;;;;;;;19.88;50.73;98313.61;1795173;79;25450;-87
2022/04/20 09:08:42;;;;;;;19.75;13.25;;;;;;;19.88;50.73;98315.00;1792813;79;26572;-87
2022/04/20 09:11:08;;;;;;;18.62;12.80;;;;;;;19.89;50.70;98319.40;1789269;79;25227;-88
2022/04/20 09:13:41;;;;;;;19.50;13.10;;;;;;;19.90;50.67;98312.64;1794522;79;27956;-87
2022/04/20 09:16:09;;;;;;;20.10;14.10;;;;;;;19.90;50.66;98316.82;1787594;79;25454;-87
2022/04/20 09:18:38;;;;;;;21.17;13.80;;;;;;;19.90;50.59;98323.19;1776914;80;25677;-87
2022/04/20 09:21:10;;;;;;;22.30;13.68;;;;;;;19.91;50.63;98312.84;1777469;80;25750;-88
2022/04/20 09:23:38;;;;;;;18.85;13.08;;;;;;;19.89;50.68;98313.23;1777721;80;25369;-87
2022/04/20 09:26:17;;;;;;;17.60;12.73;;;;;;;19.89;50.63;98311.06;1777808;80;28101;-87
2022/04/20 09:29:07;;;;;;;19.00;12.93;;;;;;;19.90;50.63;98315.42;1758242;81;25582;-87
2022/04/20 09:31:45;;;;;;;19.73;12.47;;;;;;;19.89;50.60;98313.23;1777671;80;25640;-87
2022/04/20 09:34:53;;;;;;;17.70;12.33;;;;;;;19.87;50.61;98314.23;1777632;80;25686;-87
2022/04/20 09:37:14;;;;;;;19.02;12.33;;;;;;;19.84;50.71;98310.83;1725486;83;25778;-87
2022/04/20 09:39:48;;;;;;;22.15;13.13;;;;;;;19.84;50.73;98303.88;1777778;80;27550;-87
2022/04/20 09:42:15;;;;;;;21.37;12.28;;;;;;;19.85;50.59;98308.82;1774387;80;25496;-87
2022/04/20 09:45:03;;;;;;;19.45;12.78;;;;;;;19.87;50.48;98314.23;1777419;80;25404;-87
2022/04/20 09:50:30;;;;;;;17.67;12.30;;;;;;;19.90;50.39;98313.45;1777432;80;25435;-87
2022/04/20 09:52:59;;;;;;;21.07;12.80;;;;;;;19.89;50.37;98312.45;1753395;80;27520;-87
2022/04/20 09:55:37;;;;;;;18.20;12.30;;;;;;;19.88;50.35;98308.05;1728409;83;25571;-87
2022/04/20 09:58:18;;;;;;;19.67;11.60;;;;;;;19.88;50.32;98314.42;1777655;80;25495;-87
2022/04/20 10:00:50;;;;;;;21.20;12.45;;;;;;;19.86;50.42;98309.05;1777782;80;25693;-87
2022/04/20 10:03:32;;;;;;;17.48;11.90;;;;;;;19.85;50.40;98309.63;1776507;80;25468;-87
2022/04/20 10:05:59;;;;;;;18.57;12.50;;;;;;;19.85;50.32;98305.46;1777262;80;27377;-87
2022/04/20 10:08:27;;;;;;;17.17;12.33;;;;;;;19.86;50.27;98307.66;1777351;80;25605;-87
2022/04/20 10:10:55;;;;;;;17.07;11.95;;;;;;;19.87;50.19;98305.08;1777634;80;25698;-87
2022/04/20 10:13:23;;;;;;;18.67;12.10;;;;;;;19.88;50.12;98306.66;1777552;80;25801;-87
2022/04/20 10:16:06;;;;;;;19.27;12.05;;;;;;;19.85;50.24;98304.07;1753010;80;25697;-87
2022/04/20 10:18:38;;;;;;;17.07;10.95;;;;;;;19.85;50.26;98297.12;1785147;80;27494;-87
2022/04/20 10:21:11;;;;;;;17.70;11.97;;;;;;;19.84;50.27;98298.31;1791623;80;25657;-88
2022/04/20 10:23:51;;;;;;;21.17;12.15;;;;;;;19.84;50.21;98288.58;1790968;80;25808;-88
2022/04/20 10:26:17;;;;;;;16.62;11.93;;;;;;;19.84;50.26;98294.14;1789089;80;25458;-88
2022/04/20 10:29:00;;;;;;;18.67;11.57;;;;;;;19.83;50.24;98285.58;1801382;78;25675;-88
2022/04/20 10:31:46;;;;;;;18.92;11.38;;;;;;;19.81;50.33;98277.63;1790010;80;28126;-88
2022/04/20 10:34:19;;;;;;;21.68;11.95;;;;;;;19.80;50.37;98272.44;1791555;80;25645;-88
2022/04/20 10:37:01;;;;;;;20.97;11.60;;;;;;;19.77;50.17;98265.69;1791657;80;25584;-89
2022/04/20 10:39:30;;;;;;;20.95;11.33;;;;;;;19.75;50.20;98267.27;1788026;80;25682;-87
2022/04/20 10:42:16;;;;;;;22.30;11.53;;;;;;;19.73;50.20;98262.09;1791912;80;25422;-87
2022/04/20 10:45:08;;;;;;;21.93;11.75;;;;;;;19.74;50.29;98258.70;1785441;80;28493;-88
2022/04/20 10:47:43;;;;;;;19.67;11.25;;;;;;;19.74;50.21;98262.28;1791463;80;25603;-88
2022/04/20 10:50:22;;;;;;;19.00;11.08;;;;;;;19.71;50.42;98257.49;1791719;80;25608;-87
2022/04/20 10:52:58;;;;;;;21.52;11.70;;;;;;;19.70;50.50;98255.91;1791701;80;25757;-88
2022/04/20 10:55:35;;;;;;;16.60;10.48;;;;;;;19.71;50.48;98254.71;1791437;80;25673;-88
2022/04/20 10:58:20;;;;;;;17.37;10.45;;;;;;;19.69;50.62;98252.31;1776365;80;27608;-87
2022/04/20 11:00:47;;;;;;;17.50;10.68;;;;;;;19.70;50.61;98250.34;1791623;80;25656;-87
2022/04/20 11:03:13;;;;;;;18.75;11.20;;;;;;;19.71;50.67;98251.16;1791728;80;25493;-87
2022/04/20 11:05:55;;;;;;;16.57;11.33;;;;;;;19.71;50.69;98250.55;1791646;80;25735;-88
2022/04/20 11:08:23;;;;;;;16.85;10.75;;;;;;;19.73;50.68;98248.19;1790811;80;25684;-87
2022/04/20 11:19:32;;;;;;;15.72;9.90;;;;;;;19.76;50.79;98252.97;1780660;80;25685;-87
2022/04/20 11:22:08;;;;;;;14.75;9.90;;;;;;;19.77;50.73;98248.19;1776840;80;25656;-87
2022/04/20 11:24:35;;;;;;;17.30;10.55;;;;;;;19.78;50.72;98247.81;1777816;80;27463;-87
2022/04/20 11:27:02;;;;;;;14.73;10.13;;;;;;;19.80;50.69;98250.20;1777801;80;25672;-87
2022/04/20 11:29:29;;;;;;;16.48;9.95;;;;;;;19.81;50.69;98242.87;1777587;80;25676;-87
2022/04/20 11:32:02;;;;;;;17.70;10.50;;;;;;;19.81;50.65;98244.26;1777961;80;25765;-86
2022/04/20 11:34:35;;;;;;;15.32;9.80;;;;;;;19.82;50.62;98242.28;1722665;83;25689;-87
2022/04/20 11:37:06;;;;;;;16.57;10.65;;;;;;;19.83;50.60;98242.48;1729055;83;27480;-86
2022/04/20 11:39:34;;;;;;;16.80;9.93;;;;;;;19.83;50.58;98242.48;1777039;80;25903;-88
2022/04/20 11:42:08;;;;;;;14.90;9.70;;;;;;;19.85;50.54;98237.92;1777889;80;25443;-87
2022/04/20 11:44:40;;;;;;;17.32;9.85;;;;;;;19.85;50.52;98235.95;1731105;82;25835;-87
2022/04/20 11:47:10;;;;;;;14.98;9.40;;;;;;;19.85;50.61;98237.92;1791461;80;25404;-87
2022/04/20 11:49:40;;;;;;;14.97;9.60;;;;;;;19.86;50.63;98242.32;1791694;80;27435;-87
2022/04/20 11:52:14;;;;;;;14.87;9.60;;;;;;;19.84;50.52;98241.31;1792078;80;25834;-87
2022/04/20 11:54:46;;;;;;;13.08;9.05;;;;;;;19.84;50.43;98235.75;1791671;80;25396;-86
2022/04/20 11:57:15;;;;;;;14.28;8.85;;;;;;;19.85;50.37;98247.66;1791895;80;25723;-87
2022/04/20 11:59:48;;;;;;;14.85;9.88;;;;;;;19.86;50.34;98243.09;1791824;80;25849;-88
2022/04/20 12:02:16;;;;;;;15.32;8.78;;;;;;;19.84;50.29;98243.28;1791802;80;27311;-89